createdAt,value
2018-10-05T00:01:31.762Z,71.58
2018-10-05T00:04:35.196Z,71.45
2018-10-05T00:07:38.599Z,71.27
2018-10-05T00:10:42.014Z,70.53
2018-10-05T00:13:45.512Z,70.85
2018-10-05T00:16:49.410Z,71.21
2018-10-05T00:19:52.824Z,71.10
2018-10-05T00:22:56.330Z,70.76
2018-10-05T00:25:59.869Z,70.94
2018-10-05T00:29:03.382Z,70.71
2018-10-05T00:32:06.878Z,70.27
2018-10-05T00:35:10.350Z,70.82
2018-10-05T00:38:13.927Z,70.60
2018-10-05T00:41:18.050Z,71.04
2018-10-05T00:44:21.457Z,70.43
2018-10-05T00:47:25.005Z,70.30
2018-10-05T00:50:28.511Z,70.42
2018-10-05T00:53:32.045Z,71.04
2018-10-05T00:56:35.450Z,71.04
2018-10-05T00:59:38.825Z,70.53
2018-10-05T01:02:42.296Z,70.38
2018-10-05T01:05:45.754Z,70.90
2018-10-05T01:08:49.167Z,71.05
2018-10-05T01:11:52.582Z,71.22
2018-10-05T01:14:56.005Z,71.91
2018-10-05T01:18:00.499Z,71.88
2018-10-05T01:21:03.894Z,71.24
2018-10-05T01:24:07.316Z,71.47
2018-10-05T01:27:10.803Z,71.72
2018-10-05T01:30:14.289Z,71.53
2018-10-05T01:33:17.698Z,71.64
2018-10-05T01:36:21.081Z,71.78
2018-10-05T01:39:24.533Z,71.50
2018-10-05T01:42:27.900Z,71.63
2018-10-05T01:45:31.296Z,72.14
2018-10-05T01:48:34.703Z,72.64
2018-10-05T01:51:38.633Z,73.57
2018-10-05T01:54:42.111Z,74.30
2018-10-05T01:57:45.594Z,74.75
2018-10-05T02:00:49.027Z,74.59
2018-10-05T02:03:52.538Z,74.40
2018-10-05T02:06:56.018Z,74.63
2018-10-05T02:09:59.411Z,74.92
2018-10-05T02:13:02.797Z,75.22
2018-10-05T02:16:06.737Z,75.30
2018-10-05T02:19:10.325Z,74.99
2018-10-05T02:22:13.732Z,75.00
2018-10-05T02:25:17.142Z,75.17
2018-10-05T02:28:20.525Z,75.12
2018-10-05T02:31:23.936Z,75.16
2018-10-05T02:34:27.417Z,74.60
2018-10-05T02:37:30.823Z,74.77
2018-10-05T02:40:34.244Z,75.34
2018-10-05T02:43:37.597Z,75.01
2018-10-05T02:46:41.027Z,75.00
2018-10-05T02:49:44.441Z,75.02
2018-10-05T02:52:47.826Z,75.29
2018-10-05T02:55:51.333Z,74.84
2018-10-05T02:58:54.732Z,74.73
2018-10-05T03:02:09.364Z,74.88
2018-10-05T03:05:12.797Z,74.87
2018-10-05T03:08:16.215Z,74.74
2018-10-05T03:11:19.582Z,74.73
2018-10-05T03:14:23.049Z,74.78
2018-10-05T03:17:26.504Z,74.64
2018-10-05T03:20:29.887Z,74.85
2018-10-05T03:23:33.314Z,74.78
2018-10-05T03:26:36.681Z,74.49
2018-10-05T03:29:40.084Z,74.59
2018-10-05T03:32:43.484Z,74.48
2018-10-05T03:35:46.906Z,76.79
2018-10-05T03:38:50.309Z,76.47
2018-10-05T03:41:53.703Z,76.13
2018-10-05T03:44:57.114Z,75.33
2018-10-05T03:48:00.486Z,75.19
2018-10-05T03:51:03.964Z,74.84
2018-10-05T03:54:07.489Z,75.01
2018-10-05T03:57:10.902Z,75.06
2018-10-05T04:00:14.533Z,75.04
2018-10-05T04:03:18.105Z,74.53
2018-10-05T04:06:21.633Z,74.17
2018-10-05T04:09:25.135Z,74.39
2018-10-05T04:12:28.635Z,74.04
2018-10-05T04:15:32.132Z,73.96
2018-10-05T04:18:35.617Z,73.77
2018-10-05T04:21:39.131Z,73.87
2018-10-05T04:24:42.626Z,73.91
2018-10-05T04:27:46.136Z,73.48
2018-10-05T04:30:49.634Z,73.64
2018-10-05T04:33:53.142Z,73.64
2018-10-05T04:36:56.664Z,73.70
2018-10-05T04:40:00.178Z,73.45
2018-10-05T04:43:03.650Z,73.79
2018-10-05T04:46:07.345Z,73.76
2018-10-05T04:49:11.026Z,73.76
2018-10-05T04:52:14.565Z,73.43
2018-10-05T04:55:18.216Z,73.54
2018-10-05T04:58:21.793Z,73.86
2018-10-05T05:01:25.275Z,73.77
2018-10-05T05:04:28.780Z,73.85
2018-10-05T05:07:32.504Z,74.29
2018-10-05T05:10:35.986Z,74.08
2018-10-05T05:13:39.548Z,74.20
2018-10-05T05:16:42.984Z,73.87
2018-10-05T05:19:46.559Z,73.63
2018-10-05T05:22:50.031Z,73.33
2018-10-05T05:25:53.526Z,73.30
2018-10-05T05:28:57.377Z,73.84
2018-10-05T05:32:00.801Z,74.01
2018-10-05T05:35:04.347Z,74.38
2018-10-05T05:38:07.816Z,73.90
2018-10-05T05:41:11.391Z,73.93
2018-10-05T05:44:14.894Z,73.71
2018-10-05T05:47:18.327Z,73.50
2018-10-05T05:50:21.813Z,73.89
2018-10-05T05:53:25.212Z,73.75
2018-10-05T05:56:28.639Z,73.85
2018-10-05T05:59:32.207Z,74.55
2018-10-05T06:02:35.791Z,74.32
2018-10-05T06:05:39.245Z,74.22
2018-10-05T06:08:42.751Z,74.48
2018-10-05T06:11:46.278Z,74.30
2018-10-05T06:14:49.752Z,73.95
2018-10-05T06:17:53.236Z,74.12
2018-10-05T06:20:56.734Z,73.63
2018-10-05T06:24:00.296Z,73.83
2018-10-05T06:27:03.746Z,73.58
2018-10-05T06:30:07.205Z,72.69
2018-10-05T06:33:10.705Z,72.11
2018-10-05T06:36:14.142Z,71.76
2018-10-05T06:39:17.540Z,71.01
2018-10-05T06:42:21.036Z,70.86
2018-10-05T06:45:24.464Z,70.70
2018-10-05T06:48:28.044Z,69.97
2018-10-05T06:51:31.651Z,69.58
2018-10-05T06:54:35.060Z,69.23
2018-10-05T06:57:38.554Z,68.71
2018-10-05T07:00:42.063Z,68.30
2018-10-05T07:03:45.459Z,67.92
2018-10-05T07:06:51.111Z,67.70
2018-10-05T07:09:54.517Z,67.65
2018-10-05T07:12:57.942Z,67.42
2018-10-05T07:16:01.445Z,66.92
2018-10-05T07:19:04.898Z,66.37
2018-10-05T07:22:08.357Z,66.18
2018-10-05T07:25:11.954Z,65.83
2018-10-05T07:28:15.472Z,65.87
2018-10-05T07:31:18.967Z,65.41
2018-10-05T07:34:22.461Z,65.17
2018-10-05T07:37:25.999Z,64.88
2018-10-05T07:40:29.450Z,64.57
2018-10-05T07:43:32.833Z,64.42
2018-10-05T07:46:36.249Z,63.97
2018-10-05T07:49:39.641Z,63.48
2018-10-05T07:52:43.089Z,63.59
2018-10-05T07:55:46.856Z,63.66
2018-10-05T07:58:50.373Z,64.14
2018-10-05T08:01:53.866Z,62.91
2018-10-05T08:04:57.261Z,62.16
2018-10-05T08:08:00.663Z,61.82
2018-10-05T08:11:04.101Z,61.32
2018-10-05T08:14:07.581Z,61.68
2018-10-05T08:17:10.967Z,61.52
2018-10-05T08:20:14.357Z,61.10
2018-10-05T08:23:17.759Z,60.72
2018-10-05T08:26:21.153Z,60.03
2018-10-05T08:29:24.627Z,59.71
2018-10-05T08:32:28.109Z,59.90
2018-10-05T08:35:31.569Z,59.89
2018-10-05T08:38:35.056Z,60.07
2018-10-05T08:41:38.470Z,59.50
2018-10-05T08:44:41.871Z,59.17
2018-10-05T08:47:45.281Z,59.42
2018-10-05T08:50:48.656Z,59.91
2018-10-05T08:53:52.065Z,58.91
2018-10-05T08:56:55.473Z,58.77
2018-10-05T08:59:58.848Z,58.62
2018-10-05T09:03:02.285Z,58.10
2018-10-05T09:06:05.810Z,58.06
2018-10-05T09:09:09.297Z,57.47
2018-10-05T09:12:12.685Z,57.71
2018-10-05T09:15:16.111Z,57.89
2018-10-05T09:18:19.654Z,57.96
2018-10-05T09:21:22.897Z,57.23
2018-10-05T09:24:26.275Z,57.69
2018-10-05T09:27:29.669Z,57.68
2018-10-05T09:30:33.100Z,58.23
2018-10-05T09:33:36.465Z,57.14
2018-10-05T09:36:39.904Z,56.93
2018-10-05T09:39:43.290Z,55.84
2018-10-05T09:42:47.753Z,56.06
2018-10-05T09:45:51.186Z,54.98
2018-10-05T09:48:54.594Z,54.93
2018-10-05T09:51:57.995Z,54.62
2018-10-05T09:55:01.387Z,54.25
2018-10-05T09:58:04.836Z,53.81
2018-10-05T10:01:13.625Z,53.24
2018-10-05T10:04:17.028Z,53.53
2018-10-05T10:07:20.402Z,52.58
2018-10-05T10:10:24.087Z,52.84
2018-10-05T10:13:27.532Z,52.40
2018-10-05T10:16:30.932Z,51.91
2018-10-05T10:19:34.348Z,52.63
2018-10-05T10:22:37.773Z,52.54
2018-10-05T10:25:41.148Z,51.23
2018-10-05T10:28:44.709Z,51.47
2018-10-05T10:31:47.988Z,51.32
2018-10-05T10:34:51.432Z,51.49
2018-10-05T10:37:54.966Z,51.29
2018-10-05T10:40:58.328Z,51.93
2018-10-05T10:44:01.840Z,51.02
2018-10-05T10:47:05.352Z,52.65
2018-10-05T10:50:08.837Z,51.34
2018-10-05T10:53:12.372Z,52.15
2018-10-05T10:56:15.867Z,52.47
2018-10-05T10:59:19.405Z,51.38
2018-10-05T11:02:22.841Z,49.79
2018-10-05T11:05:26.360Z,49.78
2018-10-05T11:08:29.863Z,50.12
2018-10-05T11:11:33.363Z,50.63
2018-10-05T11:14:37.058Z,50.56
2018-10-05T11:17:40.625Z,48.72
2018-10-05T11:20:44.073Z,48.66
2018-10-05T11:23:47.469Z,47.93
2018-10-05T11:26:50.976Z,48.98
2018-10-05T11:29:54.474Z,48.67
2018-10-05T11:32:57.988Z,49.58
2018-10-05T11:36:01.375Z,48.23
2018-10-05T11:39:05.824Z,47.62
2018-10-05T11:42:09.195Z,48.09
2018-10-05T11:45:12.693Z,48.44
2018-10-05T11:48:16.183Z,48.51
2018-10-05T11:51:19.705Z,49.39
2018-10-05T11:54:23.229Z,49.36
2018-10-05T11:57:26.829Z,48.45
2018-10-05T12:00:31.121Z,46.41
2018-10-05T12:03:34.638Z,47.12
2018-10-05T12:06:38.133Z,47.40
2018-10-05T12:09:41.864Z,46.14
2018-10-05T12:12:45.345Z,46.05
2018-10-05T12:15:48.833Z,45.40
2018-10-05T12:18:52.372Z,45.47
2018-10-05T12:21:55.842Z,45.92
2018-10-05T12:24:59.300Z,45.58
2018-10-05T12:28:02.742Z,45.13
2018-10-05T12:31:06.196Z,45.45
2018-10-05T12:34:09.618Z,45.71
2018-10-05T12:37:13.059Z,45.79
2018-10-05T12:40:16.592Z,45.05
2018-10-05T12:43:19.990Z,45.41
2018-10-05T12:46:23.454Z,45.18
2018-10-05T12:49:26.841Z,45.38
2018-10-05T12:52:30.248Z,45.25
2018-10-05T12:55:33.608Z,45.16
2018-10-05T12:58:36.981Z,44.67
2018-10-05T13:01:40.455Z,44.62
2018-10-05T13:04:44.008Z,45.48
2018-10-05T13:07:47.427Z,45.30
2018-10-05T13:10:50.850Z,45.68
2018-10-05T13:13:54.265Z,44.70
2018-10-05T13:16:57.774Z,44.84
2018-10-05T13:20:01.224Z,45.52
2018-10-05T13:23:04.724Z,45.18
2018-10-05T13:26:09.326Z,44.95
2018-10-05T13:29:12.807Z,43.70
2018-10-05T13:32:16.270Z,43.44
2018-10-05T13:35:19.745Z,43.21
2018-10-05T13:38:23.224Z,42.49
2018-10-05T13:41:26.768Z,42.86
2018-10-05T13:44:30.411Z,42.78
2018-10-05T13:47:33.845Z,42.38
2018-10-05T13:50:37.415Z,42.34
2018-10-05T13:53:40.940Z,41.73
2018-10-05T13:56:44.425Z,42.40
2018-10-05T13:59:48.498Z,42.20
2018-10-05T14:02:51.987Z,41.39
2018-10-05T14:05:55.605Z,40.68
2018-10-05T14:08:59.084Z,40.72
2018-10-05T14:12:02.711Z,40.24
2018-10-05T14:15:06.214Z,39.94
2018-10-05T14:18:09.757Z,39.95
2018-10-05T14:21:13.213Z,39.96
2018-10-05T14:24:16.673Z,39.40
2018-10-05T14:27:20.093Z,39.56
2018-10-05T14:30:23.568Z,39.78
2018-10-05T14:33:27.008Z,39.36
2018-10-05T14:36:30.482Z,39.82
2018-10-05T14:39:33.972Z,39.78
2018-10-05T14:42:37.354Z,39.27
2018-10-05T14:45:40.955Z,38.45
2018-10-05T14:48:44.423Z,39.64
2018-10-05T14:51:47.854Z,39.33
2018-10-05T14:54:51.765Z,40.27
2018-10-05T14:57:55.267Z,40.07
2018-10-05T15:00:58.691Z,40.28
2018-10-05T15:04:02.199Z,41.14
2018-10-05T15:07:06.479Z,41.49
2018-10-05T15:10:10.433Z,41.61
2018-10-05T15:13:13.963Z,42.29
2018-10-05T15:16:17.321Z,42.26
2018-10-05T15:19:20.716Z,42.56
2018-10-05T15:22:24.236Z,42.57
2018-10-05T15:25:27.841Z,42.56
2018-10-05T15:28:31.230Z,43.41
2018-10-05T15:31:35.816Z,43.26
2018-10-05T15:34:39.279Z,43.14
2018-10-05T15:37:42.693Z,43.78
2018-10-05T15:40:46.047Z,43.68
2018-10-05T15:43:49.442Z,43.62
2018-10-05T15:46:59.791Z,43.44
2018-10-05T15:50:03.310Z,43.53
2018-10-05T15:53:06.724Z,43.84
2018-10-05T15:56:10.173Z,44.14
2018-10-05T15:59:13.602Z,43.87
2018-10-05T16:02:17.116Z,44.27
2018-10-05T16:05:20.612Z,44.63
2018-10-05T16:08:24.129Z,44.88
2018-10-05T16:11:27.736Z,44.92
2018-10-05T16:14:31.290Z,45.45
2018-10-05T16:17:34.837Z,45.49
2018-10-05T16:20:38.437Z,45.86
2018-10-05T16:23:42.080Z,46.14
2018-10-05T16:26:45.562Z,46.45
2018-10-05T16:29:49.056Z,46.85
2018-10-05T16:32:52.556Z,46.92
2018-10-05T16:35:56.122Z,47.33
2018-10-05T16:39:00.657Z,47.76
2018-10-05T16:42:04.290Z,48.23
2018-10-05T16:45:07.864Z,48.67
2018-10-05T16:48:11.399Z,49.17
2018-10-05T16:51:14.882Z,49.49
2018-10-05T16:54:18.420Z,49.98
2018-10-05T16:57:21.995Z,50.83
2018-10-05T17:00:25.488Z,51.41
2018-10-05T17:03:29.169Z,51.84
2018-10-05T17:06:32.675Z,52.18
2018-10-05T17:09:36.216Z,52.68
2018-10-05T17:12:39.931Z,53.25
2018-10-05T17:15:43.412Z,52.86
2018-10-05T17:18:47.657Z,53.60
2018-10-05T17:21:51.257Z,53.53
2018-10-05T17:24:54.797Z,53.75
2018-10-05T17:27:58.241Z,54.39
2018-10-05T17:31:01.870Z,54.89
2018-10-05T17:34:05.447Z,55.31
2018-10-05T17:37:09.094Z,55.93
2018-10-05T17:40:12.580Z,56.20
2018-10-05T17:43:17.293Z,56.62
2018-10-05T17:46:20.865Z,56.84
2018-10-05T17:49:24.298Z,57.54
2018-10-05T17:52:27.762Z,57.56
2018-10-05T17:55:31.505Z,57.89
2018-10-05T17:58:34.866Z,58.38
2018-10-05T18:01:38.416Z,58.73
2018-10-05T18:04:42.081Z,59.11
2018-10-05T18:07:45.694Z,59.59
2018-10-05T18:10:49.166Z,59.81
2018-10-05T18:13:52.631Z,60.32
2018-10-05T18:16:56.124Z,60.81
2018-10-05T18:19:59.706Z,61.01
2018-10-05T18:23:03.141Z,61.32
2018-10-05T18:26:06.878Z,61.37
2018-10-05T18:29:10.350Z,61.69
2018-10-05T18:32:13.846Z,61.99
2018-10-05T18:35:17.309Z,61.83
2018-10-05T18:38:20.784Z,62.11
2018-10-05T18:41:24.412Z,62.07
2018-10-05T18:44:27.765Z,61.73
2018-10-05T18:47:31.264Z,62.63
2018-10-05T18:50:34.850Z,62.03
2018-10-05T18:53:38.272Z,62.84
2018-10-05T18:56:53.183Z,62.08
2018-10-05T18:59:56.649Z,63.22
2018-10-05T19:03:00.188Z,62.99
2018-10-05T19:06:03.660Z,62.78
2018-10-05T19:09:07.575Z,63.42
2018-10-05T19:12:12.027Z,63.66
2018-10-05T19:15:15.885Z,64.03
2018-10-05T19:18:19.612Z,63.87
2018-10-05T19:21:23.115Z,64.14
2018-10-05T19:24:26.857Z,64.60
2018-10-05T19:27:30.325Z,64.73
2018-10-05T19:30:33.948Z,64.85
2018-10-05T19:33:37.405Z,64.89
2018-10-05T19:36:40.931Z,64.81
2018-10-05T19:39:44.352Z,66.24
2018-10-05T19:42:47.946Z,64.98
2018-10-05T19:45:51.437Z,66.46
2018-10-05T19:48:55.156Z,66.61
2018-10-05T19:51:59.000Z,66.44
2018-10-05T19:55:02.520Z,65.91
2018-10-05T19:58:06.020Z,66.06
2018-10-05T20:01:09.531Z,65.71
2018-10-05T20:04:13.086Z,65.95
2018-10-05T20:07:16.613Z,67.20
2018-10-05T20:10:20.314Z,67.28
2018-10-05T20:13:24.027Z,66.34
2018-10-05T20:16:27.546Z,66.63
2018-10-05T20:19:31.289Z,67.03
2018-10-05T20:22:35.088Z,67.14
2018-10-05T20:25:38.618Z,68.13
2018-10-05T20:28:42.204Z,67.51
2018-10-05T20:31:45.727Z,68.85
2018-10-05T20:34:49.143Z,67.79
2018-10-05T20:37:52.730Z,67.85
2018-10-05T20:40:56.659Z,68.16
2018-10-05T20:44:00.243Z,68.38
2018-10-05T20:47:03.707Z,69.55
2018-10-05T20:50:07.228Z,69.48
2018-10-05T20:53:10.731Z,69.65
2018-10-05T20:56:14.441Z,69.61
2018-10-05T20:59:17.941Z,69.99
2018-10-05T21:02:21.389Z,69.89
2018-10-05T21:05:25.039Z,70.76
2018-10-05T21:08:28.581Z,70.14
2018-10-05T21:11:32.202Z,71.63
2018-10-05T21:14:35.741Z,71.82
2018-10-05T21:17:39.207Z,72.70
2018-10-05T21:20:42.756Z,72.20
2018-10-05T21:23:46.498Z,73.04
2018-10-05T21:26:49.961Z,72.65
2018-10-05T21:29:53.489Z,73.44
2018-10-05T21:32:57.041Z,72.33
2018-10-05T21:36:00.437Z,73.95
2018-10-05T21:39:06.244Z,73.69
2018-10-05T21:42:09.694Z,74.26
2018-10-05T21:45:13.203Z,74.57
2018-10-05T21:48:16.898Z,74.15
2018-10-05T21:51:20.495Z,74.37
2018-10-05T21:54:24.081Z,74.15
2018-10-05T21:57:27.614Z,73.82
2018-10-05T22:00:37.406Z,74.33
2018-10-05T22:03:45.303Z,74.14
2018-10-05T22:06:48.822Z,74.30
2018-10-05T22:09:52.366Z,74.50
2018-10-05T22:12:55.829Z,74.50
2018-10-05T22:15:59.329Z,74.90
2018-10-05T22:19:02.837Z,74.50
2018-10-05T22:22:06.334Z,73.85
2018-10-05T22:25:09.853Z,73.96
2018-10-05T22:28:13.495Z,74.25
2018-10-05T22:31:16.949Z,75.31
2018-10-05T22:34:20.528Z,74.43
2018-10-05T22:37:24.049Z,75.29
2018-10-05T22:40:27.587Z,75.46
2018-10-05T22:43:31.355Z,75.61
2018-10-05T22:46:34.865Z,75.59
2018-10-05T22:49:38.379Z,75.71
2018-10-05T22:52:42.010Z,74.63
2018-10-05T22:55:45.521Z,75.73
2018-10-05T22:58:48.974Z,75.51
2018-10-05T23:01:52.600Z,76.17
2018-10-05T23:04:56.073Z,76.04
2018-10-05T23:07:59.590Z,76.79
2018-10-05T23:11:04.120Z,75.92
2018-10-05T23:14:07.832Z,75.36
2018-10-05T23:17:11.340Z,76.57
2018-10-05T23:20:14.846Z,76.58
2018-10-05T23:23:18.305Z,76.64
2018-10-05T23:26:21.828Z,76.10
2018-10-05T23:29:25.309Z,75.68
2018-10-05T23:32:28.955Z,76.98
2018-10-05T23:35:32.414Z,77.39
2018-10-05T23:38:35.935Z,77.03
2018-10-05T23:41:39.570Z,75.75
2018-10-05T23:44:43.056Z,76.86
2018-10-05T23:47:46.769Z,77.22
2018-10-05T23:50:50.237Z,77.59
2018-10-05T23:53:53.760Z,77.66
2018-10-05T23:56:57.242Z,78.37
